< < Back
Terminal Aerodrome Forecast


Current Version              Previous Versions:   1  2  3  4  5  6  7  8  9  

Terminal Aerodrome Forecast

824
FTUS44 KMOB 261757
TAFPNS
TAF
KPNS 261757Z 2618/2718 10008KT P6SM FEW050 BKN250
     FM270100 11004KT P6SM FEW050 SCT250
     FM271300 08009KT P6SM SKC=

Latest METAR

290
SAUS70 KWBC 270400 RRH
MTRPNS
METAR KPNS 270353Z 09003KT 10SM CLR 27/23 A2999 RMK AO2 SLP158
T02670233


USA.gov is the U.S. government's official web portal to all federal, state and local government web resources and services.